createdAt,value
2022-09-11T00:00:51.417Z,6.27
2022-09-11T00:03:21.474Z,6.33
2022-09-11T00:05:49.324Z,7.90
2022-09-11T00:08:19.445Z,8.13
2022-09-11T00:10:48.230Z,6.90
2022-09-11T00:13:21.182Z,6.73
2022-09-11T00:15:51.316Z,6.83
2022-09-11T00:18:22.340Z,6.50
2022-09-11T00:20:53.424Z,6.50
2022-09-11T00:23:22.689Z,6.63
2022-09-11T00:25:51.073Z,6.20
2022-09-11T00:28:21.186Z,6.10
2022-09-11T00:30:58.884Z,6.87
2022-09-11T00:33:28.836Z,6.80
2022-09-11T00:35:58.333Z,5.83
2022-09-11T00:38:27.103Z,6.37
2022-09-11T00:40:55.542Z,5.43
2022-09-11T00:43:23.450Z,6.07
2022-09-11T00:45:56.308Z,6.00
2022-09-11T00:48:29.921Z,6.53
2022-09-11T00:51:01.343Z,6.17
2022-09-11T00:53:31.663Z,6.27
2022-09-11T00:56:04.297Z,5.83
2022-09-11T00:58:36.418Z,6.80
2022-09-11T01:01:04.332Z,6.93
2022-09-11T01:03:33.183Z,6.53
2022-09-11T01:06:02.610Z,6.83
2022-09-11T01:08:30.317Z,7.43
2022-09-11T01:11:13.390Z,7.27
2022-09-11T01:13:48.652Z,6.73
2022-09-11T01:16:23.166Z,7.27
2022-09-11T01:18:57.544Z,6.60
2022-09-11T01:21:59.882Z,7.20
2022-09-11T01:24:53.447Z,6.33
2022-09-11T01:27:41.705Z,8.13
2022-09-11T01:30:12.349Z,7.60
2022-09-11T01:32:50.442Z,7.20
2022-09-11T01:35:24.934Z,8.13
2022-09-11T01:37:58.475Z,8.27
2022-09-11T01:40:29.157Z,7.80
2022-09-11T01:43:06.098Z,7.60
2022-09-11T01:45:37.249Z,7.97
2022-09-11T01:48:07.835Z,8.60
2022-09-11T01:50:39.888Z,8.70
2022-09-11T01:53:09.675Z,9.37
2022-09-11T01:55:42.722Z,9.67
2022-09-11T01:58:15.288Z,9.30
2022-09-11T02:00:49.671Z,9.50
2022-09-11T02:03:22.516Z,9.20
2022-09-11T02:05:54.747Z,9.73
2022-09-11T02:08:29.429Z,11.10
2022-09-11T02:11:03.685Z,10.70
2022-09-11T02:13:38.158Z,10.43
2022-09-11T02:16:13.907Z,12.10
2022-09-11T02:18:48.523Z,11.73
2022-09-11T02:21:16.240Z,11.57
2022-09-11T02:23:44.131Z,12.23
2022-09-11T02:26:14.964Z,14.10
2022-09-11T02:28:44.291Z,14.80
2022-09-11T02:31:12.282Z,16.90
2022-09-11T02:33:40.099Z,16.57
2022-09-11T02:36:22.249Z,17.60
2022-09-11T02:39:02.325Z,17.37
2022-09-11T02:41:37.536Z,17.80
2022-09-11T02:44:14.009Z,15.90
2022-09-11T02:46:56.729Z,16.70
2022-09-11T02:49:32.010Z,15.63
2022-09-11T02:52:05.596Z,16.50
2022-09-11T02:54:45.200Z,16.53
2022-09-11T02:57:19.831Z,16.10
2022-09-11T02:59:54.358Z,17.03
2022-09-11T03:02:24.030Z,15.13
2022-09-11T03:04:51.851Z,14.73
2022-09-11T03:07:19.580Z,16.40
2022-09-11T03:09:47.263Z,16.73
2022-09-11T03:12:15.422Z,16.50
2022-09-11T03:14:43.269Z,15.60
2022-09-11T03:17:13.467Z,15.30
2022-09-11T03:19:41.171Z,14.67
2022-09-11T03:22:08.910Z,14.73
2022-09-11T03:24:36.642Z,15.03
2022-09-11T03:27:05.437Z,13.43
2022-09-11T03:29:33.565Z,16.47
2022-09-11T03:32:01.296Z,15.13
2022-09-11T03:34:31.692Z,14.10
2022-09-11T03:37:00.180Z,16.00
2022-09-11T03:39:27.874Z,16.13
2022-09-11T03:41:55.586Z,15.13
2022-09-11T03:44:23.275Z,16.37
2022-09-11T03:46:52.635Z,13.63
2022-09-11T03:49:20.398Z,13.43
2022-09-11T03:51:49.454Z,16.17
2022-09-11T03:54:18.291Z,15.20
2022-09-11T03:56:45.990Z,15.33
2022-09-11T03:59:13.699Z,14.40
2022-09-11T04:01:41.440Z,14.40
2022-09-11T04:04:09.153Z,13.10
2022-09-11T04:06:36.853Z,13.27
2022-09-11T04:09:05.960Z,12.63
2022-09-11T04:11:37.449Z,11.53
2022-09-11T04:14:05.462Z,11.40
2022-09-11T04:16:33.483Z,12.67
2022-09-11T04:19:02.007Z,12.37
2022-09-11T04:21:30.144Z,13.00
2022-09-11T04:24:00.219Z,12.83
2022-09-11T04:26:32.339Z,10.70
2022-09-11T04:29:00.358Z,11.47
2022-09-11T04:31:28.768Z,11.57
2022-09-11T04:33:58.164Z,10.53
2022-09-11T04:36:27.181Z,10.60
2022-09-11T04:38:57.734Z,10.63
2022-09-11T04:41:26.222Z,11.57
2022-09-11T04:44:02.401Z,12.13
2022-09-11T04:46:32.323Z,11.73
2022-09-11T04:49:00.216Z,11.47
2022-09-11T04:51:30.162Z,11.50
2022-09-11T04:53:59.131Z,11.57
2022-09-11T04:56:28.054Z,12.07
2022-09-11T04:58:59.722Z,11.60
2022-09-11T05:01:31.314Z,11.93
2022-09-11T05:04:00.492Z,12.53
2022-09-11T05:06:30.336Z,12.97
2022-09-11T05:09:02.564Z,12.50
2022-09-11T05:11:31.034Z,12.63
2022-09-11T05:14:00.470Z,14.70
2022-09-11T05:16:29.775Z,13.20
2022-09-11T05:18:58.830Z,15.43
2022-09-11T05:21:27.819Z,14.27
2022-09-11T05:23:57.889Z,13.70
2022-09-11T05:26:27.979Z,14.67
2022-09-11T05:28:56.303Z,14.43
2022-09-11T05:31:26.381Z,15.13
2022-09-11T05:33:55.852Z,14.97
2022-09-11T05:36:24.287Z,14.73
2022-09-11T05:38:52.760Z,15.97
2022-09-11T05:41:21.352Z,14.03
2022-09-11T05:43:49.534Z,14.07
2022-09-11T05:46:18.494Z,13.90
2022-09-11T05:48:48.085Z,15.03
2022-09-11T05:51:18.481Z,14.63
2022-09-11T05:53:46.198Z,14.40
2022-09-11T05:56:15.791Z,15.97
2022-09-11T05:58:43.911Z,13.23
2022-09-11T06:01:13.487Z,13.07
2022-09-11T06:03:42.056Z,13.93
2022-09-11T06:06:13.373Z,13.87
2022-09-11T06:08:44.086Z,13.27
2022-09-11T06:11:14.156Z,14.17
2022-09-11T06:13:43.838Z,13.23
2022-09-11T06:16:17.822Z,13.17
2022-09-11T06:18:49.195Z,14.00
2022-09-11T06:21:20.488Z,12.53
2022-09-11T06:23:49.140Z,12.83
2022-09-11T06:26:19.351Z,12.47
2022-09-11T06:28:47.395Z,14.43
2022-09-11T06:31:17.302Z,12.27
2022-09-11T06:33:45.293Z,14.50
2022-09-11T06:36:14.518Z,14.20
2022-09-11T06:38:44.318Z,16.80
2022-09-11T06:41:16.464Z,19.40
2022-09-11T06:43:45.086Z,19.23
2022-09-11T06:46:14.633Z,20.80
2022-09-11T06:48:43.380Z,19.53
2022-09-11T06:51:13.082Z,20.87
2022-09-11T06:53:41.968Z,20.73
2022-09-11T06:56:14.064Z,19.20
2022-09-11T06:58:42.178Z,19.73
2022-09-11T07:01:12.566Z,20.87
2022-09-11T07:03:43.975Z,21.40
2022-09-11T07:06:11.792Z,21.33
2022-09-11T07:08:40.078Z,19.60
2022-09-11T07:11:08.874Z,21.33
2022-09-11T07:13:38.519Z,22.03
2022-09-11T07:16:08.912Z,20.77
2022-09-11T07:18:37.433Z,21.20
2022-09-11T07:21:09.084Z,18.90
2022-09-11T07:23:36.910Z,21.57
2022-09-11T07:26:06.009Z,21.87
2022-09-11T07:28:33.797Z,22.40
2022-09-11T07:31:10.514Z,21.40
2022-09-11T07:33:39.603Z,22.70
2022-09-11T07:36:12.059Z,21.97
2022-09-11T07:38:41.014Z,20.93
2022-09-11T07:41:09.794Z,22.47
2022-09-11T07:43:38.026Z,22.33
2022-09-11T07:46:08.266Z,22.57
2022-09-11T07:48:35.984Z,22.37
2022-09-11T07:51:05.288Z,21.53
2022-09-11T07:53:34.509Z,23.10
2022-09-11T07:56:04.392Z,22.93
2022-09-11T07:58:35.979Z,24.17
2022-09-11T08:01:05.317Z,23.83
2022-09-11T08:03:35.359Z,22.20
2022-09-11T08:06:06.337Z,23.80
2022-09-11T08:08:34.939Z,23.50
2022-09-11T08:11:05.529Z,23.90
2022-09-11T08:13:33.520Z,22.07
2022-09-11T08:16:01.458Z,23.10
2022-09-11T08:18:29.579Z,24.27
2022-09-11T08:21:04.452Z,22.40
2022-09-11T08:23:33.089Z,21.80
2022-09-11T08:26:07.826Z,23.03
2022-09-11T08:28:37.033Z,23.73
2022-09-11T08:31:06.167Z,22.20
2022-09-11T08:33:34.373Z,21.93
2022-09-11T08:36:06.130Z,23.43
2022-09-11T08:38:34.325Z,22.53
2022-09-11T08:41:12.243Z,21.53
2022-09-11T08:43:50.817Z,22.73
2022-09-11T08:46:21.848Z,23.47
2022-09-11T08:48:58.190Z,22.87
2022-09-11T08:51:27.250Z,22.60
2022-09-11T08:53:56.940Z,20.03
2022-09-11T08:56:28.614Z,19.13
2022-09-11T08:59:12.191Z,21.40
2022-09-11T09:01:47.128Z,18.50
2022-09-11T09:04:42.712Z,20.60
2022-09-11T09:07:22.789Z,19.07
2022-09-11T09:10:00.166Z,19.23
2022-09-11T09:12:34.057Z,18.13
2022-09-11T09:15:17.659Z,18.80
2022-09-11T09:17:50.161Z,17.83
2022-09-11T09:20:22.587Z,16.10
2022-09-11T09:22:57.310Z,17.47
2022-09-11T09:25:26.494Z,17.07
2022-09-11T09:28:00.434Z,18.43
2022-09-11T09:30:35.432Z,17.70
2022-09-11T09:33:13.396Z,15.77
2022-09-11T09:35:43.168Z,15.77
2022-09-11T09:38:15.634Z,16.73
2022-09-11T09:40:54.888Z,16.33
2022-09-11T09:43:33.905Z,15.30
2022-09-11T09:46:20.115Z,17.33
2022-09-11T09:48:48.202Z,17.47
2022-09-11T09:51:16.156Z,16.27
2022-09-11T09:53:49.465Z,15.67
2022-09-11T09:56:19.883Z,16.40
2022-09-11T09:58:56.167Z,15.83
2022-09-11T10:01:46.825Z,14.90
2022-09-11T10:04:18.050Z,14.93
2022-09-11T10:06:47.056Z,14.57
2022-09-11T10:09:28.142Z,15.77
2022-09-11T10:12:02.640Z,14.77
2022-09-11T10:17:23.084Z,13.13
2022-09-11T10:19:52.816Z,12.23
2022-09-11T10:22:26.242Z,12.23
2022-09-11T10:25:01.806Z,12.27
2022-09-11T10:27:31.522Z,11.73
2022-09-11T10:30:00.483Z,13.17
2022-09-11T10:32:28.950Z,14.13
2022-09-11T10:34:57.139Z,11.33
2022-09-11T10:37:27.730Z,11.97
2022-09-11T10:40:05.853Z,12.40
2022-09-11T10:42:37.753Z,12.30
2022-09-11T10:45:14.688Z,11.10
2022-09-11T10:47:42.468Z,11.80
2022-09-11T10:50:28.789Z,11.07
2022-09-11T10:53:18.218Z,10.40
2022-09-11T10:55:57.727Z,9.87
2022-09-11T10:58:31.484Z,9.20
2022-09-11T11:00:59.265Z,9.73
2022-09-11T11:03:29.395Z,11.07
2022-09-11T11:06:08.377Z,10.43
2022-09-11T11:08:59.715Z,10.00
2022-09-11T11:11:42.701Z,10.47
2022-09-11T11:15:04.428Z,10.30
2022-09-11T11:17:40.519Z,9.27
2022-09-11T11:20:29.268Z,10.07
2022-09-11T11:23:32.674Z,9.30
2022-09-11T11:26:16.765Z,10.00
2022-09-11T11:29:10.097Z,9.40
2022-09-11T11:31:51.522Z,10.40
2022-09-11T11:34:34.518Z,10.27
2022-09-11T11:37:07.529Z,10.73
2022-09-11T11:39:43.117Z,9.97
2022-09-11T11:42:16.696Z,9.17
2022-09-11T11:44:49.223Z,9.83
2022-09-11T11:47:19.946Z,10.63
2022-09-11T11:49:55.940Z,10.57
2022-09-11T11:52:33.859Z,10.57
2022-09-11T11:55:08.381Z,10.37
2022-09-11T11:57:41.574Z,9.63
2022-09-11T12:00:14.523Z,9.57
2022-09-11T12:02:46.560Z,9.57
2022-09-11T12:05:18.700Z,8.67
2022-09-11T12:07:47.327Z,8.30
2022-09-11T12:10:26.935Z,9.57
2022-09-11T12:12:59.476Z,9.90
2022-09-11T12:15:32.065Z,8.17
2022-09-11T12:18:03.312Z,8.30
2022-09-11T12:20:40.589Z,7.83
2022-09-11T12:23:35.886Z,7.37
2022-09-11T12:26:22.108Z,7.50
2022-09-11T12:28:50.666Z,7.40
2022-09-11T12:31:19.761Z,6.97
2022-09-11T12:33:57.171Z,7.57
2022-09-11T12:36:36.156Z,7.33
2022-09-11T12:39:16.005Z,6.77
2022-09-11T12:41:43.795Z,5.37
2022-09-11T12:44:31.392Z,4.23
2022-09-11T12:47:17.292Z,3.97
2022-09-11T12:49:54.857Z,3.97
2022-09-11T12:52:33.797Z,3.97
2022-09-11T12:55:07.782Z,3.90
2022-09-11T12:57:40.011Z,3.60
2022-09-11T13:00:20.961Z,3.50
2022-09-11T13:02:55.274Z,3.20
2022-09-11T13:05:28.119Z,3.00
2022-09-11T13:07:57.895Z,2.77
2022-09-11T13:10:33.372Z,3.17
2022-09-11T13:13:03.382Z,3.10
2022-09-11T13:15:40.982Z,2.73
2022-09-11T13:18:34.946Z,2.37
2022-09-11T13:21:13.441Z,2.30
2022-09-11T13:23:42.488Z,2.93
2022-09-11T13:26:16.195Z,2.53
2022-09-11T13:28:46.841Z,2.37
2022-09-11T13:31:19.345Z,2.30
2022-09-11T13:33:53.168Z,2.23
2022-09-11T13:36:24.619Z,2.83
2022-09-11T13:38:56.023Z,2.47
2022-09-11T13:41:29.733Z,2.63
2022-09-11T13:43:59.996Z,2.53
2022-09-11T13:46:31.099Z,2.40
2022-09-11T13:49:23.874Z,2.30
2022-09-11T13:51:51.844Z,2.70
2022-09-11T13:54:28.497Z,2.43
2022-09-11T13:57:17.417Z,2.53
2022-09-11T13:59:50.267Z,2.43
2022-09-11T14:02:41.794Z,2.20
2022-09-11T14:05:15.768Z,2.73
2022-09-11T14:07:57.123Z,2.73
2022-09-11T14:10:28.396Z,2.63
2022-09-11T14:13:04.151Z,2.30
2022-09-11T14:15:40.448Z,2.10
2022-09-11T14:18:14.774Z,2.30
2022-09-11T14:20:45.930Z,2.40
2022-09-11T14:23:19.993Z,1.90
2022-09-11T14:26:10.282Z,1.67
2022-09-11T14:28:44.281Z,1.70
2022-09-11T14:31:14.421Z,2.07
2022-09-11T14:33:42.542Z,1.90
2022-09-11T14:36:20.391Z,1.77
2022-09-11T14:38:49.063Z,2.13
2022-09-11T14:41:16.755Z,2.00
2022-09-11T14:43:47.749Z,1.60
2022-09-11T14:46:17.372Z,1.60
2022-09-11T14:48:45.430Z,1.40
2022-09-11T14:51:14.720Z,1.70
2022-09-11T14:53:43.929Z,1.30
2022-09-11T14:56:11.740Z,1.30
2022-09-11T14:58:39.404Z,1.30
2022-09-11T15:01:07.282Z,1.60
2022-09-11T15:03:35.103Z,1.17
2022-09-11T15:06:02.879Z,1.40
2022-09-11T15:08:31.954Z,1.40
2022-09-11T15:10:59.664Z,1.23
2022-09-11T15:13:27.649Z,1.30
2022-09-11T15:15:56.057Z,1.70
2022-09-11T15:18:23.827Z,1.50
2022-09-11T15:20:51.550Z,1.50
2022-09-11T15:23:19.317Z,1.40
2022-09-11T15:25:48.437Z,1.30
2022-09-11T15:28:16.203Z,1.50
2022-09-11T15:30:43.916Z,1.40
2022-09-11T15:33:11.868Z,1.63
2022-09-11T15:35:39.529Z,1.80
2022-09-11T15:38:07.875Z,1.57
2022-09-11T15:40:36.350Z,1.50
2022-09-11T15:43:05.463Z,1.77
2022-09-11T15:45:33.468Z,1.50
2022-09-11T15:48:02.614Z,1.50
2022-09-11T15:50:30.370Z,1.30
2022-09-11T15:52:58.578Z,1.60
2022-09-11T15:55:27.255Z,1.63
2022-09-11T15:57:55.005Z,1.63
2022-09-11T16:00:24.135Z,1.97
2022-09-11T16:02:53.200Z,1.60
2022-09-11T16:05:22.472Z,1.53
2022-09-11T16:07:50.225Z,1.40
2022-09-11T16:10:18.590Z,1.70
2022-09-11T16:12:47.023Z,2.23
2022-09-11T16:15:14.719Z,1.47
2022-09-11T16:17:44.895Z,1.40
2022-09-11T16:20:15.196Z,1.37
2022-09-11T16:22:42.946Z,1.57
2022-09-11T16:25:10.987Z,1.87
2022-09-11T16:27:38.831Z,1.30
2022-09-11T16:32:56.759Z,1.53
2022-09-11T16:35:25.519Z,1.60
2022-09-11T16:37:53.491Z,1.57
2022-09-11T16:40:21.226Z,1.83
2022-09-11T16:42:48.930Z,1.97
2022-09-11T16:45:16.876Z,1.90
2022-09-11T16:47:44.587Z,1.70
2022-09-11T16:50:14.507Z,1.80
2022-09-11T16:52:42.207Z,1.93
2022-09-11T16:55:11.727Z,1.77
2022-09-11T16:57:39.834Z,1.70
2022-09-11T17:00:09.634Z,1.50
2022-09-11T17:02:37.480Z,1.47
2022-09-11T17:05:06.032Z,1.77
2022-09-11T17:07:35.628Z,1.90
2022-09-11T17:10:03.435Z,1.73
2022-09-11T17:12:31.518Z,1.60
2022-09-11T17:14:59.416Z,2.60
2022-09-11T17:17:27.176Z,2.70
2022-09-11T17:19:54.912Z,3.20
2022-09-11T17:22:22.739Z,3.90
2022-09-11T17:24:51.915Z,4.07
2022-09-11T17:27:19.653Z,3.73
2022-09-11T17:29:47.837Z,4.47
2022-09-11T17:32:29.052Z,4.10
2022-09-11T17:34:58.418Z,4.70
2022-09-11T17:37:27.013Z,4.40
2022-09-11T17:39:57.752Z,5.10
2022-09-11T17:42:27.419Z,4.77
2022-09-11T17:44:55.156Z,5.50
2022-09-11T17:47:23.155Z,5.73
2022-09-11T17:49:50.995Z,5.37
2022-09-11T17:52:20.279Z,5.13
2022-09-11T17:54:48.953Z,5.30
2022-09-11T17:57:18.064Z,5.47
2022-09-11T17:59:49.831Z,7.00
2022-09-11T18:02:18.203Z,7.57
2022-09-11T18:04:48.039Z,8.60
2022-09-11T18:07:16.901Z,7.97
2022-09-11T18:09:44.869Z,7.43
2022-09-11T18:12:12.623Z,7.50
2022-09-11T18:14:42.967Z,6.97
2022-09-11T18:17:11.271Z,8.37
2022-09-11T18:19:39.115Z,7.63
2022-09-11T18:22:07.549Z,6.87
2022-09-11T18:24:35.274Z,7.07
2022-09-11T18:27:02.981Z,7.33
2022-09-11T18:29:30.738Z,6.83
2022-09-11T18:32:00.209Z,7.27
2022-09-11T18:34:28.790Z,7.73
2022-09-11T18:36:56.765Z,7.70
2022-09-11T18:39:24.511Z,7.90
2022-09-11T18:41:53.245Z,7.00
2022-09-11T18:44:22.957Z,7.53
2022-09-11T18:46:53.611Z,8.33
2022-09-11T18:49:23.365Z,6.70
2022-09-11T18:51:51.165Z,7.87
2022-09-11T18:54:21.223Z,8.00
2022-09-11T18:56:50.358Z,7.97
2022-09-11T18:59:19.376Z,8.33
2022-09-11T19:01:47.560Z,8.13
2022-09-11T19:04:16.835Z,8.20
2022-09-11T19:06:46.246Z,9.23
2022-09-11T19:09:14.667Z,8.57
2022-09-11T19:11:42.963Z,8.10
2022-09-11T19:14:12.790Z,8.20
2022-09-11T19:16:40.942Z,8.80
2022-09-11T19:19:09.004Z,8.00
2022-09-11T19:21:37.787Z,8.27
2022-09-11T19:24:07.767Z,8.30
2022-09-11T19:26:38.781Z,8.77
2022-09-11T19:29:08.549Z,8.37
2022-09-11T19:31:36.847Z,9.50
2022-09-11T19:34:04.625Z,8.77
2022-09-11T19:36:34.213Z,8.63
2022-09-11T19:39:02.869Z,8.80
2022-09-11T19:41:33.841Z,8.90
2022-09-11T19:44:02.575Z,9.83
2022-09-11T19:46:31.749Z,9.80
2022-09-11T19:49:02.834Z,9.60
2022-09-11T19:51:32.291Z,8.30
2022-09-11T19:54:02.585Z,9.07
2022-09-11T19:56:32.869Z,9.63
2022-09-11T19:59:00.915Z,8.83
2022-09-11T20:01:30.344Z,9.67
2022-09-11T20:04:00.486Z,9.50
2022-09-11T20:06:30.439Z,9.37
2022-09-11T20:09:20.164Z,8.93
2022-09-11T20:11:48.757Z,8.40
2022-09-11T20:14:16.465Z,9.27
2022-09-11T20:16:44.295Z,8.90
2022-09-11T20:19:12.108Z,9.07
2022-09-11T20:21:40.523Z,8.97
2022-09-11T20:24:09.098Z,9.90
2022-09-11T20:26:37.262Z,9.07
2022-09-11T20:29:08.479Z,9.40
2022-09-11T20:31:46.487Z,11.67
2022-09-11T20:34:15.144Z,11.47
2022-09-11T20:36:42.843Z,10.17
2022-09-11T20:39:12.680Z,14.40
2022-09-11T20:41:40.363Z,11.63
2022-09-11T20:44:09.504Z,12.67
2022-09-11T20:46:37.266Z,12.77
2022-09-11T20:49:06.151Z,11.43
2022-09-11T20:51:34.561Z,9.83
2022-09-11T20:54:02.328Z,9.43
2022-09-11T20:56:30.242Z,9.27
2022-09-11T20:59:00.040Z,9.57
2022-09-11T21:01:32.283Z,9.63
2022-09-11T21:04:00.818Z,10.23
2022-09-11T21:06:31.255Z,8.63
2022-09-11T21:09:01.366Z,9.17
2022-09-11T21:11:30.505Z,8.70
2022-09-11T21:13:58.283Z,8.77
2022-09-11T21:16:26.031Z,9.20
2022-09-11T21:18:57.502Z,9.30
2022-09-11T21:21:26.681Z,8.87
2022-09-11T21:23:55.146Z,8.83
2022-09-11T21:26:23.101Z,8.70
2022-09-11T21:28:50.920Z,8.73
2022-09-11T21:31:19.637Z,8.33
2022-09-11T21:33:47.491Z,8.00
2022-09-11T21:36:16.830Z,9.07
2022-09-11T21:38:44.575Z,8.43
2022-09-11T21:41:14.298Z,8.80
2022-09-11T21:43:42.177Z,8.50
2022-09-11T21:46:10.611Z,8.83
2022-09-11T21:48:41.137Z,8.87
2022-09-11T21:51:10.238Z,8.83
2022-09-11T21:53:39.771Z,9.13
2022-09-11T21:56:08.593Z,9.07
2022-09-11T21:58:36.382Z,8.83
2022-09-11T22:01:08.532Z,8.63
2022-09-11T22:03:36.658Z,9.77
2022-09-11T22:06:06.927Z,9.53
2022-09-11T22:08:35.297Z,8.87
2022-09-11T22:11:05.792Z,8.33
2022-09-11T22:13:35.326Z,7.83
2022-09-11T22:16:06.243Z,8.90
2022-09-11T22:18:34.138Z,9.13
2022-09-11T22:21:01.898Z,8.57
2022-09-11T22:23:30.572Z,9.27
2022-09-11T22:26:00.313Z,8.77
2022-09-11T22:28:29.519Z,9.07
2022-09-11T22:30:57.538Z,9.17
2022-09-11T22:33:25.528Z,8.63
2022-09-11T22:35:53.244Z,9.03
2022-09-11T22:38:20.961Z,8.17
2022-09-11T22:40:53.438Z,8.23
2022-09-11T22:43:21.211Z,8.40
2022-09-11T22:45:53.692Z,8.67
2022-09-11T22:48:21.459Z,8.77
2022-09-11T22:50:49.152Z,9.10
2022-09-11T22:53:16.879Z,9.20
2022-09-11T22:55:45.127Z,9.40
2022-09-11T22:58:13.175Z,9.17
2022-09-11T23:00:41.749Z,9.00
2022-09-11T23:03:10.939Z,9.37
2022-09-11T23:05:55.979Z,9.30
2022-09-11T23:08:28.503Z,8.53
2022-09-11T23:11:00.426Z,8.67
2022-09-11T23:13:28.727Z,8.87
2022-09-11T23:15:57.510Z,9.20
2022-09-11T23:18:28.207Z,9.30
2022-09-11T23:20:56.916Z,8.57
2022-09-11T23:23:25.271Z,9.27
2022-09-11T23:25:53.351Z,9.37
2022-09-11T23:28:21.047Z,8.83
2022-09-11T23:30:48.830Z,9.10
2022-09-11T23:33:16.512Z,8.43
2022-09-11T23:35:45.559Z,7.80
2022-09-11T23:38:13.276Z,9.57
2022-09-11T23:40:40.987Z,8.53
2022-09-11T23:43:08.682Z,8.87
2022-09-11T23:45:36.521Z,8.70
2022-09-11T23:48:04.517Z,8.37
2022-09-11T23:50:32.189Z,9.33
2022-09-11T23:53:01.245Z,8.30
2022-09-11T23:55:29.158Z,8.03
2022-09-11T23:57:57.320Z,8.50
